Time;durP1;ratioP1;P1;durP2;ratioP2;P2;SDS_P1;SDS_P2;PMS_P1;PMS_P2;Temp;Humidity;BMP_temperature;BMP_pressure;BME280_temperature;BME280_humidity;BME280_pressure;Samples;Min_cycle;Max_cycle;Signal;HPM_P1;HPM_P2
2023/03/20 00:02:05;;;;;;;1.47;1.47;;;;;;;;;;4954352;28;20651;-56
2023/03/20 00:04:31;;;;;;;1.30;1.30;;;;;;;;;;4946285;28;20194;-55
2023/03/20 00:06:57;;;;;;;1.40;1.40;;;;;;;;;;4944250;28;20469;-56
2023/03/20 00:09:25;;;;;;;1.60;1.60;;;;;;;;;;4947126;28;20311;-55
2023/03/20 00:11:51;;;;;;;2.07;1.97;;;;;;;;;;4925961;28;21466;-55
2023/03/20 00:14:18;;;;;;;2.00;1.90;;;;;;;;;;4947802;28;20493;-56
2023/03/20 00:16:44;;;;;;;1.67;1.67;;;;;;;;;;4932478;28;20602;-55
2023/03/20 00:19:22;;;;;;;1.93;1.83;;;;;;;;;;4946126;28;20632;-56
2023/03/20 00:21:48;;;;;;;1.30;1.30;;;;;;;;;;4950401;28;20217;-55
2023/03/20 00:24:14;;;;;;;1.47;1.47;;;;;;;;;;4948048;28;20191;-56
2023/03/20 00:26:40;;;;;;;1.33;1.33;;;;;;;;;;4952516;28;20607;-55
2023/03/20 00:29:06;;;;;;;1.37;1.37;;;;;;;;;;4950727;28;20242;-56
2023/03/20 00:31:38;;;;;;;1.40;1.40;;;;;;;;;;4955730;28;20199;-55
2023/03/20 00:34:14;;;;;;;1.30;1.30;;;;;;;;;;4929778;28;20195;-56
2023/03/20 00:36:40;;;;;;;1.50;1.50;;;;;;;;;;4953784;28;20195;-56
2023/03/20 00:39:07;;;;;;;1.20;1.20;;;;;;;;;;4950894;28;20215;-56
2023/03/20 00:41:35;;;;;;;1.30;1.30;;;;;;;;;;4948539;28;20195;-55
2023/03/20 00:44:20;;;;;;;1.37;1.37;;;;;;;;;;4955288;28;20268;-55
2023/03/20 00:46:47;;;;;;;1.40;1.40;;;;;;;;;;4952617;28;20187;-55
2023/03/20 00:49:13;;;;;;;1.37;1.37;;;;;;;;;;4950688;28;20267;-55
2023/03/20 00:51:39;;;;;;;1.50;1.50;;;;;;;;;;4945762;28;20715;-55
2023/03/20 00:54:05;;;;;;;1.60;1.60;;;;;;;;;;4953467;28;20200;-56
2023/03/20 00:56:32;;;;;;;1.50;1.50;;;;;;;;;;4935781;28;20683;-55
2023/03/20 00:58:59;;;;;;;1.50;1.50;;;;;;;;;;4958407;28;20273;-56
2023/03/20 01:01:26;;;;;;;1.50;1.50;;;;;;;;;;4955828;28;20194;-56
2023/03/20 01:03:52;;;;;;;1.57;1.57;;;;;;;;;;4954026;28;20195;-55
2023/03/20 01:06:17;;;;;;;1.60;1.60;;;;;;;;;;4955852;28;20228;-56
2023/03/20 01:08:44;;;;;;;1.67;1.67;;;;;;;;;;4942332;28;20202;-56
2023/03/20 01:11:10;;;;;;;1.23;1.23;;;;;;;;;;4961871;28;20649;-56
2023/03/20 01:13:36;;;;;;;1.40;1.40;;;;;;;;;;4960805;28;20250;-55
2023/03/20 01:16:02;;;;;;;1.60;1.60;;;;;;;;;;4944175;28;20685;-55
2023/03/20 01:18:28;;;;;;;1.50;1.50;;;;;;;;;;4956572;28;20246;-56
2023/03/20 01:20:54;;;;;;;1.50;1.50;;;;;;;;;;4960073;28;20195;-55
2023/03/20 01:23:21;;;;;;;1.50;1.50;;;;;;;;;;4957296;28;20283;-55
2023/03/20 01:25:47;;;;;;;1.60;1.60;;;;;;;;;;4948701;28;20660;-56
2023/03/20 01:28:20;;;;;;;1.10;1.10;;;;;;;;;;4952757;28;20206;-56
2023/03/20 01:30:46;;;;;;;1.50;1.50;;;;;;;;;;4952688;28;20196;-55
2023/03/20 01:33:16;;;;;;;1.23;1.23;;;;;;;;;;4948771;28;20271;-56
2023/03/20 01:35:42;;;;;;;1.23;1.23;;;;;;;;;;4945125;28;20254;-56
2023/03/20 01:38:21;;;;;;;1.40;1.40;;;;;;;;;;4952623;28;20211;-55
2023/03/20 01:40:52;;;;;;;1.30;1.30;;;;;;;;;;4950676;28;20195;-55
2023/03/20 01:43:19;;;;;;;1.30;1.30;;;;;;;;;;4953516;28;20188;-55
2023/03/20 01:46:05;;;;;;;1.53;1.53;;;;;;;;;;4946269;28;20273;-55
2023/03/20 01:48:49;;;;;;;1.53;1.53;;;;;;;;;;4949801;28;20205;-55
2023/03/20 01:51:18;;;;;;;2.00;1.90;;;;;;;;;;4945594;28;20203;-55
2023/03/20 01:53:45;;;;;;;2.27;2.17;;;;;;;;;;4952141;28;20214;-55
2023/03/20 01:56:11;;;;;;;1.60;1.60;;;;;;;;;;4952072;28;20199;-56
2023/03/20 01:58:38;;;;;;;1.70;1.70;;;;;;;;;;4956251;28;20222;-56
2023/03/20 02:01:05;;;;;;;1.87;1.77;;;;;;;;;;4952970;28;20266;-55
2023/03/20 02:03:31;;;;;;;1.37;1.37;;;;;;;;;;4949665;28;20513;-56
2023/03/20 02:05:57;;;;;;;1.10;1.10;;;;;;;;;;4956456;28;20712;-56
2023/03/20 02:08:25;;;;;;;1.20;1.20;;;;;;;;;;4934989;28;20289;-56
2023/03/20 02:10:51;;;;;;;1.40;1.40;;;;;;;;;;4951293;28;20289;-56
2023/03/20 02:13:17;;;;;;;1.50;1.50;;;;;;;;;;4950032;28;21936;-55
2023/03/20 02:16:02;;;;;;;1.17;1.17;;;;;;;;;;4931816;28;20696;-55
2023/03/20 02:18:29;;;;;;;1.33;1.33;;;;;;;;;;4953956;28;20246;-56
2023/03/20 02:21:13;;;;;;;1.47;1.47;;;;;;;;;;4931147;28;20610;-55
2023/03/20 02:23:42;;;;;;;2.20;2.10;;;;;;;;;;4942472;28;20194;-56
2023/03/20 02:26:08;;;;;;;1.67;1.67;;;;;;;;;;4953745;28;20188;-56
2023/03/20 02:28:34;;;;;;;1.80;1.70;;;;;;;;;;4952186;28;20198;-56
2023/03/20 02:31:19;;;;;;;1.50;1.50;;;;;;;;;;4949250;28;20196;-56
2023/03/20 02:33:55;;;;;;;1.10;1.10;;;;;;;;;;4956279;28;20213;-55
2023/03/20 02:36:21;;;;;;;1.50;1.50;;;;;;;;;;4944876;28;20197;-55
2023/03/20 02:38:56;;;;;;;1.40;1.40;;;;;;;;;;4956711;28;20226;-55
2023/03/20 02:41:22;;;;;;;2.10;2.00;;;;;;;;;;4958953;28;20187;-56
2023/03/20 02:43:52;;;;;;;2.23;2.13;;;;;;;;;;4956942;28;20560;-55
2023/03/20 02:46:18;;;;;;;1.90;1.80;;;;;;;;;;4956077;28;20194;-56
2023/03/20 02:48:46;;;;;;;2.00;1.90;;;;;;;;;;4959974;28;20222;-55
2023/03/20 02:51:14;;;;;;;2.13;2.03;;;;;;;;;;4953943;28;20290;-55
2023/03/20 02:53:50;;;;;;;1.60;1.60;;;;;;;;;;4955735;28;20202;-55
2023/03/20 02:56:24;;;;;;;2.50;2.40;;;;;;;;;;4954937;28;20657;-55
2023/03/20 02:58:52;;;;;;;2.33;2.23;;;;;;;;;;4952004;28;20578;-55
2023/03/20 03:01:22;;;;;;;0.90;0.90;;;;;;;;;;4947633;28;20253;-56
2023/03/20 03:04:24;;;;;;;0.80;0.80;;;;;;;;;;4944693;28;20570;-56
2023/03/20 03:06:51;;;;;;;1.27;1.27;;;;;;;;;;4855175;29;20233;-56
2023/03/20 03:09:21;;;;;;;1.00;1.00;;;;;;;;;;4928932;28;20196;-56
2023/03/20 03:11:55;;;;;;;0.93;0.93;;;;;;;;;;4947195;28;20742;-56
2023/03/20 03:14:33;;;;;;;0.90;0.90;;;;;;;;;;4932363;28;20238;-55
2023/03/20 03:16:59;;;;;;;0.80;0.80;;;;;;;;;;4944190;28;20930;-55
2023/03/20 03:19:26;;;;;;;0.73;0.73;;;;;;;;;;4929613;28;20218;-55
2023/03/20 03:21:52;;;;;;;0.90;0.90;;;;;;;;;;4945200;28;20278;-56
2023/03/20 03:24:31;;;;;;;0.90;0.90;;;;;;;;;;4949949;28;20189;-55
2023/03/20 03:26:58;;;;;;;1.00;1.00;;;;;;;;;;4944164;28;20191;-56
2023/03/20 03:29:25;;;;;;;1.10;1.10;;;;;;;;;;4946893;28;20199;-55
2023/03/20 03:31:51;;;;;;;1.10;1.10;;;;;;;;;;4947328;28;20200;-56
2023/03/20 03:34:17;;;;;;;1.00;1.00;;;;;;;;;;4953021;28;20190;-55
2023/03/20 03:36:46;;;;;;;0.90;0.90;;;;;;;;;;4948877;28;20222;-55
2023/03/20 03:39:18;;;;;;;0.90;0.90;;;;;;;;;;4947866;28;20215;-55
2023/03/20 03:42:20;;;;;;;1.00;1.00;;;;;;;;;;4947421;28;20187;-56
2023/03/20 03:45:24;;;;;;;1.20;1.20;;;;;;;;;;4888239;29;20302;-55
2023/03/20 03:47:54;;;;;;;1.40;1.40;;;;;;;;;;4888731;29;20219;-56
2023/03/20 03:50:25;;;;;;;1.30;1.30;;;;;;;;;;4889068;29;20193;-56
2023/03/20 03:52:52;;;;;;;1.30;1.30;;;;;;;;;;4916234;28;20539;-55
2023/03/20 03:55:27;;;;;;;1.20;1.20;;;;;;;;;;4944730;28;20195;-56
2023/03/20 03:57:55;;;;;;;1.13;1.13;;;;;;;;;;4925039;28;21810;-55
2023/03/20 04:00:22;;;;;;;0.90;0.90;;;;;;;;;;4943473;28;20191;-56
2023/03/20 04:02:49;;;;;;;0.90;0.90;;;;;;;;;;4942460;28;20660;-56
2023/03/20 04:05:15;;;;;;;0.90;0.90;;;;;;;;;;4953938;28;20195;-56
2023/03/20 04:07:44;;;;;;;0.97;0.97;;;;;;;;;;4934921;28;20271;-55
2023/03/20 04:10:10;;;;;;;0.90;0.90;;;;;;;;;;4947701;28;20187;-55
2023/03/20 04:12:39;;;;;;;0.80;0.80;;;;;;;;;;4946526;28;20205;-56
2023/03/20 04:15:05;;;;;;;0.80;0.80;;;;;;;;;;4926832;28;24716;-56
2023/03/20 04:17:31;;;;;;;0.80;0.80;;;;;;;;;;4943499;28;20310;-56
2023/03/20 04:19:57;;;;;;;0.80;0.80;;;;;;;;;;4950271;28;20191;-55
2023/03/20 04:22:23;;;;;;;1.00;1.00;;;;;;;;;;4951614;28;20205;-55
2023/03/20 04:24:50;;;;;;;0.90;0.90;;;;;;;;;;4956282;28;20183;-55
2023/03/20 04:27:16;;;;;;;0.90;0.90;;;;;;;;;;4954577;28;20187;-56
2023/03/20 04:29:43;;;;;;;0.90;0.90;;;;;;;;;;4954641;28;20208;-55
2023/03/20 04:32:09;;;;;;;0.90;0.90;;;;;;;;;;4958089;28;20198;-56
2023/03/20 04:34:35;;;;;;;0.90;0.90;;;;;;;;;;4948792;28;20202;-56
2023/03/20 04:37:01;;;;;;;0.90;0.90;;;;;;;;;;4950845;28;20191;-55
2023/03/20 04:39:27;;;;;;;1.00;1.00;;;;;;;;;;4954939;28;20211;-55
2023/03/20 04:41:53;;;;;;;0.90;0.90;;;;;;;;;;4960816;28;20563;-55
2023/03/20 04:44:19;;;;;;;0.90;0.90;;;;;;;;;;4962466;28;20202;-55
2023/03/20 04:46:45;;;;;;;0.80;0.80;;;;;;;;;;4957165;28;20194;-55
2023/03/20 04:49:11;;;;;;;0.90;0.90;;;;;;;;;;4960089;28;20187;-55
2023/03/20 04:51:37;;;;;;;0.90;0.90;;;;;;;;;;4960063;28;20187;-55
2023/03/20 04:54:03;;;;;;;0.90;0.90;;;;;;;;;;4959505;28;20285;-55
2023/03/20 04:56:29;;;;;;;0.90;0.90;;;;;;;;;;4958769;28;20207;-55
2023/03/20 04:58:55;;;;;;;1.00;1.00;;;;;;;;;;4957405;28;20672;-55
2023/03/20 05:01:22;;;;;;;0.90;0.90;;;;;;;;;;4952834;28;20186;-55
2023/03/20 05:03:48;;;;;;;0.90;0.90;;;;;;;;;;4952586;28;20274;-56
2023/03/20 05:06:14;;;;;;;0.90;0.90;;;;;;;;;;4948065;28;20238;-55
2023/03/20 05:08:40;;;;;;;1.00;1.00;;;;;;;;;;4952397;28;20225;-55
2023/03/20 05:11:07;;;;;;;0.90;0.90;;;;;;;;;;4949403;28;20251;-56
2023/03/20 05:13:33;;;;;;;1.00;1.00;;;;;;;;;;4961219;28;20184;-55
2023/03/20 05:15:59;;;;;;;1.10;1.10;;;;;;;;;;4948734;28;20195;-56
2023/03/20 05:18:25;;;;;;;1.00;1.00;;;;;;;;;;4945902;28;20241;-55
2023/03/20 05:20:51;;;;;;;0.93;0.93;;;;;;;;;;4946874;28;22656;-55
2023/03/20 05:23:17;;;;;;;0.90;0.90;;;;;;;;;;4941568;28;20210;-56
2023/03/20 05:25:44;;;;;;;1.13;1.13;;;;;;;;;;4955936;28;20194;-55
2023/03/20 05:28:10;;;;;;;0.90;0.90;;;;;;;;;;4951543;28;20561;-55
2023/03/20 05:30:36;;;;;;;1.00;1.00;;;;;;;;;;4949978;28;20203;-55
2023/03/20 05:33:02;;;;;;;0.90;0.90;;;;;;;;;;4932054;28;20253;-55
2023/03/20 05:35:28;;;;;;;1.03;1.03;;;;;;;;;;4949054;28;20206;-55
2023/03/20 05:37:54;;;;;;;0.90;0.90;;;;;;;;;;4944160;28;20293;-55
2023/03/20 05:40:23;;;;;;;1.10;1.10;;;;;;;;;;4949257;28;20701;-55
2023/03/20 05:42:49;;;;;;;0.80;0.80;;;;;;;;;;4945417;28;20203;-55
2023/03/20 05:45:15;;;;;;;0.87;0.87;;;;;;;;;;4928821;28;20195;-55
2023/03/20 05:47:41;;;;;;;1.10;1.10;;;;;;;;;;4941990;28;20269;-55
2023/03/20 05:50:07;;;;;;;0.90;0.90;;;;;;;;;;4954738;28;20278;-55
2023/03/20 05:52:33;;;;;;;0.90;0.90;;;;;;;;;;4954923;28;20645;-55
2023/03/20 05:54:59;;;;;;;0.97;0.97;;;;;;;;;;4950745;28;21002;-55
2023/03/20 05:57:25;;;;;;;0.90;0.90;;;;;;;;;;4952184;28;20195;-55
2023/03/20 05:59:51;;;;;;;1.00;1.00;;;;;;;;;;4949852;28;20175;-55
2023/03/20 06:02:17;;;;;;;0.80;0.80;;;;;;;;;;4939042;28;20202;-55
2023/03/20 06:04:43;;;;;;;1.10;1.10;;;;;;;;;;4943310;28;20180;-56
2023/03/20 06:07:09;;;;;;;1.00;1.00;;;;;;;;;;4944311;28;20231;-55
2023/03/20 06:09:35;;;;;;;0.90;0.90;;;;;;;;;;4943299;28;20578;-61
2023/03/20 06:12:01;;;;;;;0.90;0.90;;;;;;;;;;4933953;28;20195;-55
2023/03/20 06:14:27;;;;;;;1.00;1.00;;;;;;;;;;4936729;28;20191;-56
2023/03/20 06:16:53;;;;;;;1.00;1.00;;;;;;;;;;4940504;28;20565;-55
2023/03/20 06:19:20;;;;;;;0.97;0.97;;;;;;;;;;4938368;28;20222;-55
2023/03/20 06:21:47;;;;;;;0.80;0.80;;;;;;;;;;4955864;28;21196;-55
2023/03/20 06:24:12;;;;;;;0.90;0.90;;;;;;;;;;4925260;28;20620;-55
2023/03/20 06:26:39;;;;;;;1.00;1.00;;;;;;;;;;4951041;28;20190;-54
2023/03/20 06:29:05;;;;;;;0.90;0.90;;;;;;;;;;4950824;28;20274;-54
2023/03/20 06:31:31;;;;;;;0.93;0.93;;;;;;;;;;4947410;28;20645;-54
2023/03/20 06:33:57;;;;;;;0.80;0.80;;;;;;;;;;4950764;28;20215;-54
2023/03/20 06:36:23;;;;;;;0.90;0.90;;;;;;;;;;4957791;28;20196;-54
2023/03/20 06:38:48;;;;;;;0.80;0.80;;;;;;;;;;4959225;28;20647;-54
2023/03/20 06:41:14;;;;;;;0.80;0.80;;;;;;;;;;4950470;28;20196;-55
2023/03/20 06:43:41;;;;;;;1.00;1.00;;;;;;;;;;4959539;28;20209;-55
2023/03/20 06:46:07;;;;;;;0.90;0.90;;;;;;;;;;4961828;28;20203;-55
2023/03/20 06:48:33;;;;;;;0.90;0.90;;;;;;;;;;4958011;28;20199;-53
2023/03/20 06:50:59;;;;;;;0.90;0.90;;;;;;;;;;4957786;28;20573;-53
2023/03/20 06:53:26;;;;;;;0.90;0.90;;;;;;;;;;4950303;28;20199;-54
2023/03/20 06:55:52;;;;;;;0.90;0.90;;;;;;;;;;4950081;28;20200;-55
2023/03/20 06:58:18;;;;;;;0.90;0.90;;;;;;;;;;4958024;28;20215;-54
2023/03/20 07:00:45;;;;;;;0.80;0.80;;;;;;;;;;4958884;28;20199;-54
2023/03/20 07:03:11;;;;;;;0.80;0.80;;;;;;;;;;4956105;28;20187;-54
2023/03/20 07:05:37;;;;;;;1.00;1.00;;;;;;;;;;4955751;28;20364;-54
2023/03/20 07:08:04;;;;;;;0.80;0.80;;;;;;;;;;4945892;28;20191;-53
2023/03/20 07:10:30;;;;;;;1.10;1.10;;;;;;;;;;4954368;28;20205;-53
2023/03/20 07:12:56;;;;;;;1.00;1.00;;;;;;;;;;4954688;28;20198;-54
2023/03/20 07:15:23;;;;;;;0.80;0.80;;;;;;;;;;4958405;28;20199;-53
2023/03/20 07:17:49;;;;;;;0.90;0.90;;;;;;;;;;4952218;28;20702;-53
2023/03/20 07:20:15;;;;;;;0.80;0.80;;;;;;;;;;4952649;28;20183;-53
2023/03/20 07:22:41;;;;;;;0.93;0.93;;;;;;;;;;4959227;28;20187;-53
2023/03/20 07:25:08;;;;;;;0.90;0.90;;;;;;;;;;4954006;28;20191;-53
2023/03/20 07:27:35;;;;;;;0.80;0.80;;;;;;;;;;4953294;28;20202;-53
2023/03/20 07:30:01;;;;;;;0.90;0.90;;;;;;;;;;4954923;28;20262;-53
2023/03/20 07:32:26;;;;;;;0.90;0.90;;;;;;;;;;4953768;28;20344;-53
2023/03/20 07:34:52;;;;;;;0.90;0.90;;;;;;;;;;4958052;28;20282;-53
2023/03/20 07:37:19;;;;;;;1.00;1.00;;;;;;;;;;4947259;28;20529;-53
2023/03/20 07:39:45;;;;;;;0.93;0.93;;;;;;;;;;4937704;28;20190;-53
2023/03/20 07:42:12;;;;;;;0.80;0.80;;;;;;;;;;4953476;28;20190;-53
2023/03/20 07:44:38;;;;;;;0.80;0.80;;;;;;;;;;4936226;28;20261;-53
2023/03/20 07:47:05;;;;;;;0.80;0.80;;;;;;;;;;4953434;28;20187;-54
2023/03/20 07:49:31;;;;;;;0.90;0.90;;;;;;;;;;4943488;28;20219;-53
2023/03/20 07:51:57;;;;;;;0.90;0.90;;;;;;;;;;4954168;28;20221;-53
2023/03/20 07:54:23;;;;;;;0.73;0.73;;;;;;;;;;4951368;28;20202;-53
2023/03/20 07:56:49;;;;;;;0.90;0.90;;;;;;;;;;4953563;28;20199;-53
2023/03/20 07:59:15;;;;;;;0.90;0.90;;;;;;;;;;4952727;28;20310;-53
2023/03/20 08:01:41;;;;;;;0.97;0.97;;;;;;;;;;4934633;28;20282;-53
2023/03/20 08:04:07;;;;;;;0.80;0.80;;;;;;;;;;4956065;28;20187;-53
2023/03/20 08:06:33;;;;;;;0.80;0.80;;;;;;;;;;4953396;28;20321;-54
2023/03/20 08:08:59;;;;;;;0.90;0.90;;;;;;;;;;4954524;28;20191;-53
2023/03/20 08:11:25;;;;;;;0.87;0.87;;;;;;;;;;4957481;28;20207;-53
2023/03/20 08:13:51;;;;;;;1.00;1.00;;;;;;;;;;4953488;28;21506;-53
2023/03/20 08:16:17;;;;;;;0.70;0.70;;;;;;;;;;4951888;28;20250;-53
2023/03/20 08:18:43;;;;;;;0.70;0.70;;;;;;;;;;4943858;28;20222;-53
2023/03/20 08:21:09;;;;;;;0.70;0.70;;;;;;;;;;4954992;28;20188;-53
2023/03/20 08:23:35;;;;;;;1.30;1.30;;;;;;;;;;4957751;28;20199;-53
2023/03/20 08:26:01;;;;;;;1.43;1.43;;;;;;;;;;4954078;28;20187;-54
2023/03/20 08:28:27;;;;;;;1.33;1.33;;;;;;;;;;4951335;28;20191;-53
2023/03/20 08:30:52;;;;;;;1.00;1.00;;;;;;;;;;4954364;28;20226;-54
2023/03/20 08:33:19;;;;;;;1.00;1.00;;;;;;;;;;4951737;28;20222;-54
2023/03/20 08:35:54;;;;;;;0.90;0.90;;;;;;;;;;4951298;28;20289;-53
2023/03/20 08:38:20;;;;;;;0.70;0.70;;;;;;;;;;4956443;28;20215;-54
2023/03/20 08:40:46;;;;;;;1.10;1.10;;;;;;;;;;4956690;28;20198;-53
2023/03/20 08:43:12;;;;;;;1.20;1.20;;;;;;;;;;4958875;28;20199;-53
2023/03/20 08:45:38;;;;;;;1.40;1.40;;;;;;;;;;4949207;28;20203;-53
2023/03/20 08:48:04;;;;;;;1.40;1.40;;;;;;;;;;4947166;28;20188;-54
2023/03/20 08:50:30;;;;;;;1.10;1.10;;;;;;;;;;4955016;28;20209;-54
2023/03/20 08:52:56;;;;;;;1.10;1.10;;;;;;;;;;4954564;28;20191;-53
2023/03/20 08:55:22;;;;;;;1.20;1.20;;;;;;;;;;4955140;28;20205;-54
2023/03/20 08:57:48;;;;;;;1.40;1.40;;;;;;;;;;4961046;28;20250;-54
2023/03/20 09:00:14;;;;;;;1.50;1.50;;;;;;;;;;4952348;28;20542;-54
2023/03/20 09:02:40;;;;;;;1.33;1.33;;;;;;;;;;4949751;28;21757;-54
2023/03/20 09:05:07;;;;;;;1.20;1.20;;;;;;;;;;4946262;28;20195;-54
2023/03/20 09:07:32;;;;;;;0.90;0.90;;;;;;;;;;4956684;28;20238;-53
2023/03/20 09:09:58;;;;;;;1.30;1.30;;;;;;;;;;4944197;28;20198;-53
2023/03/20 09:12:24;;;;;;;1.40;1.40;;;;;;;;;;4961425;28;20282;-53
2023/03/20 09:14:50;;;;;;;1.30;1.30;;;;;;;;;;4956757;28;20223;-53
2023/03/20 09:17:16;;;;;;;1.30;1.30;;;;;;;;;;4960840;28;20195;-54
2023/03/20 09:19:43;;;;;;;1.30;1.30;;;;;;;;;;4955753;28;20269;-54
2023/03/20 09:22:12;;;;;;;1.20;1.20;;;;;;;;;;4954123;28;20266;-54
2023/03/20 09:24:38;;;;;;;1.10;1.10;;;;;;;;;;4946354;28;20427;-54
2023/03/20 09:27:04;;;;;;;1.27;1.27;;;;;;;;;;4957112;28;20183;-54
2023/03/20 09:29:30;;;;;;;1.40;1.40;;;;;;;;;;4951254;28;20199;-54
2023/03/20 09:31:55;;;;;;;1.20;1.20;;;;;;;;;;4936234;28;20687;-54
2023/03/20 09:34:23;;;;;;;1.40;1.40;;;;;;;;;;4953512;28;20210;-54
2023/03/20 09:36:48;;;;;;;1.60;1.60;;;;;;;;;;4958625;28;20191;-54
2023/03/20 09:39:14;;;;;;;1.30;1.30;;;;;;;;;;4949889;28;20278;-54
2023/03/20 09:41:41;;;;;;;1.57;1.57;;;;;;;;;;4951996;28;20195;-54
2023/03/20 09:44:26;;;;;;;1.50;1.50;;;;;;;;;;4942648;28;20271;-54
2023/03/20 09:47:10;;;;;;;1.20;1.20;;;;;;;;;;4953275;28;20192;-54
2023/03/20 09:49:36;;;;;;;1.30;1.30;;;;;;;;;;4954149;28;20202;-54
2023/03/20 09:52:11;;;;;;;1.50;1.50;;;;;;;;;;4936047;28;20667;-55
2023/03/20 09:54:37;;;;;;;1.40;1.40;;;;;;;;;;4940848;28;20289;-55
2023/03/20 09:57:03;;;;;;;0.80;0.80;;;;;;;;;;4951986;28;20277;-54
2023/03/20 09:59:29;;;;;;;1.30;1.30;;;;;;;;;;4937959;28;20294;-54
2023/03/20 10:01:57;;;;;;;1.53;1.53;;;;;;;;;;4940900;28;20660;-55
2023/03/20 10:04:23;;;;;;;1.27;1.27;;;;;;;;;;4955716;28;20220;-54
2023/03/20 10:06:49;;;;;;;1.30;1.30;;;;;;;;;;4949273;28;21821;-54
2023/03/20 10:09:22;;;;;;;1.50;1.50;;;;;;;;;;4957594;28;20198;-55
2023/03/20 10:12:05;;;;;;;1.30;1.30;;;;;;;;;;4957649;28;20203;-54
2023/03/20 10:14:31;;;;;;;1.00;1.00;;;;;;;;;;4954866;28;20641;-53
2023/03/20 10:17:03;;;;;;;1.10;1.10;;;;;;;;;;4953772;28;20232;-54
2023/03/20 10:19:30;;;;;;;1.30;1.30;;;;;;;;;;4952126;28;20266;-54
2023/03/20 10:22:02;;;;;;;1.37;1.37;;;;;;;;;;4957209;28;20203;-54
2023/03/20 10:24:29;;;;;;;1.37;1.37;;;;;;;;;;4945299;28;20192;-54
2023/03/20 10:26:55;;;;;;;1.30;1.30;;;;;;;;;;4949010;28;20262;-54
2023/03/20 10:29:40;;;;;;;1.20;1.20;;;;;;;;;;4939898;28;20226;-54
2023/03/20 10:32:12;;;;;;;1.20;1.20;;;;;;;;;;4954439;28;20222;-54
2023/03/20 10:34:41;;;;;;;1.40;1.40;;;;;;;;;;4955448;28;20227;-53
2023/03/20 10:37:13;;;;;;;1.40;1.40;;;;;;;;;;4937357;28;20218;-54
2023/03/20 10:39:51;;;;;;;1.20;1.20;;;;;;;;;;4958939;28;20222;-54
2023/03/20 10:42:19;;;;;;;1.20;1.20;;;;;;;;;;4954734;28;20242;-54
2023/03/20 10:44:48;;;;;;;1.20;1.20;;;;;;;;;;4952736;28;20191;-54
2023/03/20 10:47:15;;;;;;;1.50;1.50;;;;;;;;;;4945785;28;20214;-54
2023/03/20 10:49:48;;;;;;;1.30;1.30;;;;;;;;;;4939732;28;20929;-54
2023/03/20 10:52:19;;;;;;;1.30;1.30;;;;;;;;;;4954046;28;20249;-54
2023/03/20 10:54:46;;;;;;;1.50;1.50;;;;;;;;;;4947461;28;20191;-54
2023/03/20 10:57:14;;;;;;;1.40;1.40;;;;;;;;;;4960187;28;20226;-54
2023/03/20 10:59:52;;;;;;;1.40;1.40;;;;;;;;;;4952458;28;20304;-54
2023/03/20 11:02:20;;;;;;;1.40;1.40;;;;;;;;;;4958007;28;20560;-54
2023/03/20 11:04:46;;;;;;;1.30;1.30;;;;;;;;;;4952312;28;20192;-54
2023/03/20 11:07:15;;;;;;;1.50;1.50;;;;;;;;;;4952885;28;20745;-54
2023/03/20 11:09:41;;;;;;;1.20;1.20;;;;;;;;;;4956243;28;20194;-54
2023/03/20 11:12:11;;;;;;;1.40;1.40;;;;;;;;;;4950609;28;21321;-55
2023/03/20 11:14:38;;;;;;;1.40;1.40;;;;;;;;;;4949847;28;20191;-53
2023/03/20 11:17:05;;;;;;;1.20;1.20;;;;;;;;;;4945355;28;20203;-55
2023/03/20 11:19:34;;;;;;;1.23;1.23;;;;;;;;;;4945000;28;20226;-53
2023/03/20 11:22:01;;;;;;;1.40;1.40;;;;;;;;;;4944121;28;20705;-53
2023/03/20 11:24:26;;;;;;;1.30;1.30;;;;;;;;;;4953568;28;20210;-54
2023/03/20 11:26:52;;;;;;;1.40;1.40;;;;;;;;;;4946349;28;20846;-54
2023/03/20 11:29:24;;;;;;;1.20;1.20;;;;;;;;;;4945837;28;20226;-54
2023/03/20 11:31:50;;;;;;;1.43;1.43;;;;;;;;;;4938566;28;20273;-53
2023/03/20 11:34:16;;;;;;;1.40;1.40;;;;;;;;;;4945598;28;20198;-54
2023/03/20 11:36:47;;;;;;;1.40;1.40;;;;;;;;;;4947085;28;20226;-54
2023/03/20 11:39:14;;;;;;;1.20;1.20;;;;;;;;;;4950166;28;20479;-53
2023/03/20 11:41:46;;;;;;;1.40;1.40;;;;;;;;;;4954655;28;20274;-53
2023/03/20 11:44:31;;;;;;;1.33;1.33;;;;;;;;;;4946027;28;20281;-54
2023/03/20 11:46:57;;;;;;;1.30;1.30;;;;;;;;;;4944397;28;20192;-54
2023/03/20 11:49:23;;;;;;;1.40;1.40;;;;;;;;;;4948490;28;20557;-53
2023/03/20 11:51:49;;;;;;;1.20;1.20;;;;;;;;;;4956456;28;20636;-54
2023/03/20 11:54:16;;;;;;;1.43;1.43;;;;;;;;;;4953370;28;20752;-54
2023/03/20 11:56:50;;;;;;;1.40;1.40;;;;;;;;;;4918256;28;20285;-54
2023/03/20 11:59:17;;;;;;;1.20;1.20;;;;;;;;;;4949066;28;20227;-54
2023/03/20 12:01:50;;;;;;;1.30;1.30;;;;;;;;;;4921738;28;21016;-55
2023/03/20 12:04:20;;;;;;;1.20;1.20;;;;;;;;;;4944096;28;20199;-54
2023/03/20 12:06:46;;;;;;;1.30;1.30;;;;;;;;;;4951147;28;20239;-54
2023/03/20 12:09:15;;;;;;;1.30;1.30;;;;;;;;;;4950268;28;20205;-54
2023/03/20 12:12:14;;;;;;;1.20;1.20;;;;;;;;;;4945353;28;20206;-54
2023/03/20 12:14:43;;;;;;;1.30;1.30;;;;;;;;;;4916809;28;21437;-54
2023/03/20 12:17:17;;;;;;;1.20;1.20;;;;;;;;;;4920374;28;20233;-54
2023/03/20 12:19:43;;;;;;;1.20;1.20;;;;;;;;;;4940388;28;20249;-55
2023/03/20 12:22:32;;;;;;;1.30;1.30;;;;;;;;;;4956834;28;20221;-54
2023/03/20 12:25:17;;;;;;;1.20;1.20;;;;;;;;;;4950118;28;20199;-54
2023/03/20 12:27:47;;;;;;;1.30;1.30;;;;;;;;;;4938754;28;20205;-54
2023/03/20 12:30:15;;;;;;;1.40;1.40;;;;;;;;;;4934869;28;20187;-54
2023/03/20 12:32:46;;;;;;;1.40;1.40;;;;;;;;;;4955766;28;20199;-54
2023/03/20 12:35:16;;;;;;;1.30;1.30;;;;;;;;;;4953114;28;21090;-54
2023/03/20 12:37:42;;;;;;;1.40;1.40;;;;;;;;;;4939953;28;20197;-54
2023/03/20 12:40:11;;;;;;;1.20;1.20;;;;;;;;;;4947969;28;20280;-55
2023/03/20 12:42:51;;;;;;;1.20;1.20;;;;;;;;;;4942475;28;20194;-55
2023/03/20 12:45:20;;;;;;;1.00;1.00;;;;;;;;;;4948671;28;20211;-55
2023/03/20 12:48:05;;;;;;;1.03;1.03;;;;;;;;;;4962734;28;20206;-53
2023/03/20 12:50:41;;;;;;;0.80;0.80;;;;;;;;;;4948304;28;20244;-53
2023/03/20 12:53:07;;;;;;;0.80;0.80;;;;;;;;;;4963845;28;20185;-55
2023/03/20 12:55:45;;;;;;;1.90;1.80;;;;;;;;;;4965677;28;20199;-54
2023/03/20 12:58:17;;;;;;;1.40;1.40;;;;;;;;;;4962861;28;20253;-54
2023/03/20 13:00:48;;;;;;;1.00;1.00;;;;;;;;;;4955665;28;20286;-53
2023/03/20 13:03:33;;;;;;;0.80;0.80;;;;;;;;;;4957215;28;20187;-54
2023/03/20 13:06:10;;;;;;;0.90;0.90;;;;;;;;;;4956899;28;20243;-54
2023/03/20 13:08:36;;;;;;;0.73;0.73;;;;;;;;;;4956215;28;20258;-54
2023/03/20 13:11:11;;;;;;;0.70;0.70;;;;;;;;;;4961653;28;20187;-54
2023/03/20 13:13:46;;;;;;;0.80;0.80;;;;;;;;;;4952196;28;20234;-54
2023/03/20 13:16:12;;;;;;;0.80;0.80;;;;;;;;;;4961941;28;20245;-54
2023/03/20 13:18:47;;;;;;;1.00;1.00;;;;;;;;;;4958162;28;20679;-53
2023/03/20 13:21:14;;;;;;;0.80;0.80;;;;;;;;;;4943349;28;20685;-54
2023/03/20 13:23:43;;;;;;;0.90;0.90;;;;;;;;;;4959834;28;20222;-54
2023/03/20 13:26:21;;;;;;;0.80;0.80;;;;;;;;;;4959900;28;20187;-54
2023/03/20 13:29:05;;;;;;;0.80;0.80;;;;;;;;;;4958177;28;20202;-54
2023/03/20 13:31:36;;;;;;;0.80;0.80;;;;;;;;;;4946466;28;20191;-54
2023/03/20 13:34:08;;;;;;;0.80;0.80;;;;;;;;;;4956350;28;20190;-53
2023/03/20 13:36:50;;;;;;;0.70;0.70;;;;;;;;;;4962011;28;20649;-53
2023/03/20 13:39:27;;;;;;;0.70;0.70;;;;;;;;;;4962627;28;20211;-53
2023/03/20 13:41:53;;;;;;;0.70;0.70;;;;;;;;;;4943915;28;20290;-53
2023/03/20 13:44:19;;;;;;;0.90;0.90;;;;;;;;;;4958463;28;20679;-54
2023/03/20 13:46:46;;;;;;;0.90;0.90;;;;;;;;;;4942345;28;20194;-54
2023/03/20 13:49:30;;;;;;;0.90;0.90;;;;;;;;;;4957044;28;20738;-54
2023/03/20 13:51:59;;;;;;;0.70;0.70;;;;;;;;;;4961405;28;20198;-54
2023/03/20 13:54:31;;;;;;;0.90;0.90;;;;;;;;;;4952064;28;20230;-53
2023/03/20 13:57:00;;;;;;;0.80;0.80;;;;;;;;;;4957077;28;20225;-54
2023/03/20 13:59:45;;;;;;;0.70;0.70;;;;;;;;;;4957045;28;20228;-54
2023/03/20 14:02:29;;;;;;;0.80;0.80;;;;;;;;;;4956172;28;20192;-54
2023/03/20 14:05:02;;;;;;;0.90;0.90;;;;;;;;;;4956425;28;20202;-54
2023/03/20 14:07:29;;;;;;;0.90;0.90;;;;;;;;;;4959147;28;20243;-58
2023/03/20 14:09:55;;;;;;;0.90;0.90;;;;;;;;;;4958125;28;20191;-54
2023/03/20 14:12:23;;;;;;;0.70;0.70;;;;;;;;;;4954249;28;20199;-54
2023/03/20 14:14:50;;;;;;;0.70;0.70;;;;;;;;;;4942709;28;20199;-54
2023/03/20 14:17:20;;;;;;;0.70;0.70;;;;;;;;;;4960079;28;20193;-54
2023/03/20 14:19:46;;;;;;;0.90;0.90;;;;;;;;;;4951317;28;21312;-53
2023/03/20 14:22:15;;;;;;;0.80;0.80;;;;;;;;;;4958455;28;20620;-54
2023/03/20 14:24:41;;;;;;;0.83;0.83;;;;;;;;;;4962771;28;20190;-53
2023/03/20 14:27:16;;;;;;;0.70;0.70;;;;;;;;;;4953918;28;20184;-54
2023/03/20 14:29:42;;;;;;;0.90;0.90;;;;;;;;;;4944782;28;20265;-54
2023/03/20 14:32:11;;;;;;;0.80;0.80;;;;;;;;;;4958660;28;20222;-54
2023/03/20 14:35:09;;;;;;;0.70;0.70;;;;;;;;;;4952713;28;20290;-57
2023/03/20 14:37:38;;;;;;;0.80;0.80;;;;;;;;;;4913914;28;20274;-54
2023/03/20 14:40:07;;;;;;;0.90;0.90;;;;;;;;;;4956870;28;20188;-53
2023/03/20 14:42:42;;;;;;;0.80;0.80;;;;;;;;;;4959505;28;20209;-54
2023/03/20 14:45:29;;;;;;;0.70;0.70;;;;;;;;;;4958637;28;20618;-57
2023/03/20 14:48:04;;;;;;;0.80;0.80;;;;;;;;;;4953548;28;20191;-53
2023/03/20 14:50:46;;;;;;;0.90;0.90;;;;;;;;;;4955304;28;20199;-53
2023/03/20 14:53:19;;;;;;;1.67;1.60;;;;;;;;;;4955964;28;20738;-53
2023/03/20 14:55:52;;;;;;;1.00;1.00;;;;;;;;;;4956197;28;20274;-54